Time;durP1;ratioP1;P1;durP2;ratioP2;P2;SDS_P1;SDS_P2;PMS_P1;PMS_P2;Temp;Humidity;BMP_temperature;BMP_pressure;BME280_temperature;BME280_humidity;BME280_pressure;Samples;Min_cycle;Max_cycle;Signal;HPM_P1;HPM_P2
2022/06/15 00:02:12;;;;;;;7.00;5.70;;;;;;;18.66;78.59;99256.38;5013512;28;20223;-81
2022/06/15 00:04:38;;;;;;;6.53;5.73;;;;;;;19.88;78.31;99451.66;5012968;28;20190;-82
2022/06/15 00:07:04;;;;;;;7.27;5.60;;;;;;;18.08;77.59;99131.91;5013729;28;20666;-81
2022/06/15 00:09:29;;;;;;;6.00;5.33;;;;;;;18.81;77.86;99265.91;5015406;28;20259;-81
2022/06/15 00:11:55;;;;;;;7.37;5.33;;;;;;;19.94;77.80;99453.41;5015509;28;20258;-83
2022/06/15 00:14:24;;;;;;;7.97;5.80;;;;;;;19.02;77.56;99294.31;5012489;28;20178;-82
2022/06/15 00:16:49;;;;;;;7.80;5.23;;;;;;;19.21;77.51;99344.06;5012753;28;20176;-82
2022/06/15 00:19:16;;;;;;;6.30;5.07;;;;;;;19.50;77.77;99388.00;5012014;28;20167;-82
2022/06/15 00:21:41;;;;;;;7.30;5.30;;;;;;;19.75;77.53;99446.44;5018182;28;20173;-82
2022/06/15 00:24:07;;;;;;;11.23;5.70;;;;;;;19.21;77.33;99324.41;5010058;28;20171;-83
2022/06/15 00:26:32;;;;;;;7.23;5.00;;;;;;;18.50;76.79;99217.75;5011270;28;20167;-83
2022/06/15 00:28:58;;;;;;;6.30;5.30;;;;;;;18.87;77.48;99294.16;5016336;28;20243;-83
2022/06/15 00:31:23;;;;;;;6.80;5.07;;;;;;;19.27;77.74;99393.78;5010105;28;20210;-83
2022/06/15 00:33:49;;;;;;;6.13;4.83;;;;;;;18.39;77.26;99235.56;5009793;28;20171;-84
2022/06/15 00:36:18;;;;;;;6.43;5.00;;;;;;;19.62;76.89;99437.75;5005887;28;20159;-82
2022/06/15 00:38:54;;;;;;;6.67;5.23;;;;;;;19.70;76.69;99443.81;5009991;28;20607;-82
2022/06/15 00:41:32;;;;;;;5.97;5.00;;;;;;;19.67;76.14;99451.47;4993192;28;20187;-84
2022/06/15 00:44:22;;;;;;;5.80;5.00;;;;;;;19.55;76.27;99443.69;5010566;28;20159;-83
2022/06/15 00:47:11;;;;;;;7.97;5.00;;;;;;;19.48;75.93;99441.03;5009431;28;20241;-83
2022/06/15 00:49:47;;;;;;;6.50;5.27;;;;;;;19.50;75.65;99441.94;4968660;28;20224;-83
2022/06/15 00:52:17;;;;;;;6.20;4.80;;;;;;;19.53;75.90;99444.53;4968999;29;20220;-83
2022/06/15 00:54:49;;;;;;;6.43;4.70;;;;;;;19.50;75.65;99452.19;4968391;29;20220;-82
2022/06/15 00:57:15;;;;;;;6.17;4.67;;;;;;;18.20;75.31;99226.84;4965880;29;20596;-83
2022/06/15 01:00:04;;;;;;;8.30;5.00;;;;;;;19.46;75.19;99451.31;4964797;29;20207;-84
2022/06/15 01:02:35;;;;;;;7.77;4.57;;;;;;;18.44;74.99;99268.94;4964900;29;20240;-84
2022/06/15 01:05:06;;;;;;;5.80;4.67;;;;;;;19.45;74.62;99443.59;4965984;29;20193;-83
2022/06/15 01:07:50;;;;;;;6.53;4.40;;;;;;;19.48;74.69;99446.16;4968790;29;20180;-84
2022/06/15 01:10:16;;;;;;;5.57;4.67;;;;;;;19.48;74.42;99451.31;4969566;29;20199;-84
2022/06/15 01:13:03;;;;;;;5.90;4.60;;;;;;;19.41;74.52;99453.84;4969822;29;20685;-83
2022/06/15 01:16:03;;;;;;;5.43;4.60;;;;;;;19.06;74.47;99390.16;4969942;29;20192;-84
2022/06/15 01:18:42;;;;;;;5.03;4.53;;;;;;;19.29;73.41;99411.75;4968620;29;20164;-84
2022/06/15 01:21:31;;;;;;;7.50;4.67;;;;;;;19.33;73.67;99434.03;4996412;28;20183;-84
2022/06/15 01:24:24;;;;;;;6.40;4.50;;;;;;;19.48;73.07;99434.19;5011669;28;20182;-83
2022/06/15 01:27:27;;;;;;;6.17;4.60;;;;;;;19.37;73.26;99439.22;5010256;28;20167;-83
2022/06/15 01:30:27;;;;;;;5.27;4.27;;;;;;;19.28;73.18;99433.97;5012095;28;20174;-84
2022/06/15 01:33:11;;;;;;;7.30;4.83;;;;;;;19.37;72.90;99433.22;4950457;29;20233;-84
2022/06/15 01:35:42;;;;;;;7.77;4.70;;;;;;;19.24;73.37;99441.66;4951953;29;20756;-84
2022/06/15 01:38:36;;;;;;;6.67;4.27;;;;;;;19.27;73.07;99433.97;4951401;29;20577;-84
2022/06/15 01:41:09;;;;;;;6.37;4.20;;;;;;;19.25;72.29;99433.97;4943863;29;20173;-84
2022/06/15 01:43:41;;;;;;;5.80;4.50;;;;;;;18.23;72.44;99242.25;4950754;29;20189;-84
2022/06/15 01:46:07;;;;;;;5.20;4.40;;;;;;;19.29;72.42;99435.72;4950341;29;20162;-84
2022/06/15 01:48:35;;;;;;;6.80;4.60;;;;;;;18.89;72.19;99366.91;4943911;29;20171;-84
2022/06/15 01:51:10;;;;;;;6.53;4.40;;;;;;;19.36;71.64;99441.78;4938893;29;20221;-84
2022/06/15 01:53:42;;;;;;;6.63;4.17;;;;;;;19.43;71.33;99443.56;4939581;29;20303;-84
2022/06/15 01:56:14;;;;;;;5.37;4.30;;;;;;;19.17;71.12;99398.81;4940043;29;20197;-83
2022/06/15 01:58:44;;;;;;;7.70;4.20;;;;;;;18.55;70.97;99300.69;4941188;29;20255;-83
2022/06/15 02:01:18;;;;;;;5.73;4.37;;;;;;;19.42;70.86;99437.56;4944822;29;20189;-82
2022/06/15 02:03:57;;;;;;;4.73;4.23;;;;;;;19.51;71.01;99446.19;4949948;29;20702;-82
2022/06/15 02:06:58;;;;;;;5.47;4.40;;;;;;;19.49;71.01;99459.03;4950727;29;20173;-82
2022/06/15 02:09:36;;;;;;;6.70;4.30;;;;;;;19.29;71.85;99457.94;4976372;28;20207;-82
2022/06/15 02:12:04;;;;;;;5.43;4.37;;;;;;;19.31;72.21;99459.69;5011923;28;20667;-82
2022/06/15 02:14:41;;;;;;;6.43;4.33;;;;;;;18.74;72.61;99376.97;5011109;28;20183;-82
2022/06/15 02:17:12;;;;;;;5.23;4.40;;;;;;;19.10;73.05;99462.03;5012915;28;20192;-83
2022/06/15 02:19:44;;;;;;;5.77;4.57;;;;;;;17.95;73.41;99272.66;5015001;28;20190;-82
2022/06/15 02:22:16;;;;;;;7.87;4.47;;;;;;;18.75;73.73;99430.00;5012842;28;20164;-84
2022/06/15 02:24:45;;;;;;;6.60;4.30;;;;;;;18.14;73.69;99336.09;4998351;28;20171;-83
2022/06/15 02:27:13;;;;;;;5.00;4.37;;;;;;;18.61;73.31;99395.66;5003383;28;20254;-82
2022/06/15 02:29:41;;;;;;;8.73;4.60;;;;;;;19.13;73.15;99474.03;5001801;28;20178;-82
2022/06/15 02:32:11;;;;;;;6.53;4.47;;;;;;;19.10;73.33;99474.00;5001010;28;20238;-82
2022/06/15 02:34:38;;;;;;;8.57;4.40;;;;;;;19.00;73.31;99477.31;5003038;28;20160;-82
2022/06/15 02:37:05;;;;;;;7.07;4.70;;;;;;;18.95;73.29;99451.63;5003496;28;20159;-82
2022/06/15 02:39:32;;;;;;;5.90;4.70;;;;;;;18.78;73.06;99419.78;5002424;28;20536;-82
2022/06/15 02:42:22;;;;;;;6.77;4.47;;;;;;;19.03;72.56;99483.38;5007108;28;20647;-82
2022/06/15 02:44:50;;;;;;;8.13;4.63;;;;;;;18.03;73.02;99335.97;5006431;28;20218;-82
2022/06/15 02:47:19;;;;;;;5.67;4.60;;;;;;;18.95;72.91;99490.13;5010651;28;20151;-81
2022/06/15 02:49:46;;;;;;;8.80;4.73;;;;;;;18.82;72.63;99488.22;5011285;28;20195;-82
2022/06/15 02:52:14;;;;;;;7.43;4.80;;;;;;;18.94;72.19;99490.94;4998996;28;20192;-83
2022/06/15 02:54:46;;;;;;;6.50;4.40;;;;;;;18.57;71.60;99434.94;4983228;28;20250;-82
2022/06/15 02:57:12;;;;;;;7.40;4.37;;;;;;;18.84;70.60;99481.44;5002392;28;20225;-82
2022/06/15 02:59:38;;;;;;;8.33;4.57;;;;;;;19.02;71.11;99499.59;5005639;28;20219;-82
2022/06/15 03:02:04;;;;;;;5.10;4.23;;;;;;;19.01;70.85;99500.41;5005533;28;20574;-82
2022/06/15 03:04:29;;;;;;;5.83;4.53;;;;;;;19.02;71.17;99509.84;5009033;28;20195;-82
2022/06/15 03:06:55;;;;;;;6.13;4.40;;;;;;;19.08;71.83;99512.50;5011245;28;20217;-81
2022/06/15 03:09:21;;;;;;;5.47;4.83;;;;;;;19.12;72.39;99511.69;5008641;28;20174;-82
2022/06/15 03:11:47;;;;;;;5.00;4.50;;;;;;;19.04;72.58;99510.72;5008976;28;20251;-83
2022/06/15 03:14:14;;;;;;;7.67;4.43;;;;;;;18.21;72.22;99377.19;5008909;28;20159;-82
2022/06/15 03:16:43;;;;;;;7.20;4.43;;;;;;;18.93;71.98;99494.34;4992833;28;20178;-83
2022/06/15 03:19:12;;;;;;;5.80;4.60;;;;;;;19.01;71.27;99509.84;5010166;28;20167;-83
2022/06/15 03:21:38;;;;;;;5.80;4.77;;;;;;;19.00;71.01;99524.38;5009669;28;20163;-83
2022/06/15 03:24:04;;;;;;;5.33;4.50;;;;;;;18.48;70.68;99424.56;5009536;28;20198;-82
2022/06/15 03:26:30;;;;;;;7.87;4.50;;;;;;;19.16;70.44;99525.41;5007895;28;20205;-83
2022/06/15 03:28:55;;;;;;;5.97;4.10;;;;;;;19.03;70.07;99488.50;5005169;28;20191;-83
2022/06/15 03:31:20;;;;;;;7.33;4.40;;;;;;;18.37;69.68;99355.19;5004569;28;20197;-83
2022/06/15 03:33:47;;;;;;;5.90;4.73;;;;;;;19.29;69.81;99507.59;5005198;28;20196;-83
2022/06/15 03:36:12;;;;;;;6.50;4.60;;;;;;;19.21;69.83;99524.63;4987542;28;20170;-83
2022/06/15 03:38:38;;;;;;;5.77;4.30;;;;;;;19.31;70.06;99531.56;5005890;28;20167;-82
2022/06/15 03:41:03;;;;;;;7.17;4.70;;;;;;;18.66;70.14;99410.25;5007350;28;20604;-82
2022/06/15 03:43:29;;;;;;;6.70;4.50;;;;;;;19.37;70.54;99525.63;5009472;28;20187;-82
2022/06/15 03:45:55;;;;;;;6.27;4.40;;;;;;;19.34;70.49;99495.66;5009725;28;20202;-82
2022/06/15 03:48:21;;;;;;;6.13;5.00;;;;;;;19.52;70.74;99524.97;5009613;28;20663;-82
2022/06/15 03:50:46;;;;;;;7.20;4.50;;;;;;;19.41;71.08;99492.34;5010343;28;20167;-82
2022/06/15 03:53:12;;;;;;;5.00;4.50;;;;;;;18.46;70.92;99329.63;5013124;28;20178;-82
2022/06/15 03:55:40;;;;;;;6.87;4.83;;;;;;;19.77;70.58;99532.94;5010804;28;20655;-84
2022/06/15 03:58:05;;;;;;;5.43;4.40;;;;;;;19.33;71.10;99511.94;5002383;28;20175;-81
2022/06/15 04:00:32;;;;;;;6.87;5.00;;;;;;;19.42;72.42;99535.13;4998800;28;20309;-82
2022/06/15 04:02:58;;;;;;;5.93;4.90;;;;;;;19.58;71.34;99538.75;4997835;28;20230;-82
2022/06/15 04:05:31;;;;;;;6.97;4.53;;;;;;;19.41;71.42;99543.72;4996944;28;20187;-82
2022/06/15 04:10:40;;;;;;;7.97;4.80;;;;;;;19.65;70.62;99547.34;4996453;28;20736;-84
2022/06/15 04:13:06;;;;;;;6.57;4.50;;;;;;;19.78;70.14;99549.19;4979898;28;20260;-83
2022/06/15 04:15:32;;;;;;;11.33;5.30;;;;;;;19.04;69.49;99392.69;4989197;28;20217;-84
2022/06/15 04:17:57;;;;;;;7.73;4.83;;;;;;;19.68;68.78;99544.81;4994392;28;20210;-85
2022/06/15 04:20:34;;;;;;;7.53;4.73;;;;;;;19.48;69.14;99497.53;4975073;28;20183;-83
2022/06/15 04:23:06;;;;;;;5.97;4.60;;;;;;;19.73;68.82;99540.59;4992642;28;20186;-84
2022/06/15 04:25:36;;;;;;;6.07;4.87;;;;;;;19.77;69.08;99548.34;4993423;28;20183;-86
2022/06/15 04:28:03;;;;;;;6.97;4.70;;;;;;;19.22;69.83;99457.03;4992815;28;20564;-82
2022/06/15 04:30:29;;;;;;;7.30;4.70;;;;;;;18.09;69.56;99248.94;4995722;28;20183;-82
2022/06/15 04:32:54;;;;;;;9.80;4.97;;;;;;;19.10;69.75;99433.81;4990817;28;20211;-83
2022/06/15 04:35:20;;;;;;;7.53;4.83;;;;;;;19.74;70.94;99534.59;4988136;28;20191;-82
2022/06/15 04:37:45;;;;;;;8.07;5.20;;;;;;;19.75;71.16;99554.31;4980482;28;20219;-83
2022/06/15 04:40:15;;;;;;;5.50;4.70;;;;;;;19.71;71.99;99555.13;4977221;28;20247;-82
2022/06/15 04:42:42;;;;;;;6.77;4.90;;;;;;;19.70;71.55;99550.81;4973899;28;20676;-81
2022/06/15 04:45:09;;;;;;;6.47;4.60;;;;;;;19.17;71.67;99466.38;4981320;28;20183;-82
2022/06/15 04:47:35;;;;;;;6.90;5.13;;;;;;;19.83;72.17;99552.69;4994155;28;20615;-82
2022/06/15 04:50:00;;;;;;;7.20;4.93;;;;;;;19.40;70.68;99444.41;4993798;28;20198;-81
2022/06/15 04:52:26;;;;;;;8.30;5.33;;;;;;;19.43;70.44;99431.59;4993435;28;20245;-82
2022/06/15 04:54:51;;;;;;;7.60;5.10;;;;;;;19.65;69.09;99444.59;4994850;28;20646;-81
2022/06/15 04:57:16;;;;;;;7.10;4.83;;;;;;;19.97;68.00;99509.94;4994501;28;20187;-82
2022/06/15 04:59:42;;;;;;;9.17;5.20;;;;;;;19.81;67.10;99451.59;4995036;28;20257;-83
2022/06/15 05:02:09;;;;;;;6.40;5.00;;;;;;;20.16;66.17;99501.53;4986794;28;20232;-82
2022/06/15 05:04:35;;;;;;;6.47;5.23;;;;;;;20.27;66.03;99551.34;4976085;28;20219;-82
2022/06/15 05:07:00;;;;;;;9.40;5.30;;;;;;;20.31;64.71;99558.25;4975446;28;20645;-83
2022/06/15 05:09:26;;;;;;;6.63;4.77;;;;;;;20.68;64.56;99561.06;4964135;28;20220;-82
2022/06/15 05:11:51;;;;;;;5.63;5.00;;;;;;;20.34;63.54;99511.13;4956594;28;20224;-82
2022/06/15 05:14:17;;;;;;;9.10;4.73;;;;;;;20.19;62.87;99457.84;4948573;29;20348;-82
2022/06/15 05:16:42;;;;;;;6.13;4.30;;;;;;;20.81;62.09;99556.00;4962588;28;20636;-82
2022/06/15 05:19:07;;;;;;;7.67;4.40;;;;;;;20.43;62.08;99516.31;4958404;29;20189;-82
2022/06/15 05:21:38;;;;;;;7.37;4.63;;;;;;;19.34;61.79;99279.13;4959448;29;20180;-81
2022/06/15 05:24:04;;;;;;;7.60;4.23;;;;;;;20.73;61.94;99511.34;4958143;29;20217;-82
2022/06/15 05:26:29;;;;;;;6.70;4.33;;;;;;;21.06;61.73;99546.66;4955695;28;20199;-82
2022/06/15 05:28:55;;;;;;;10.00;4.60;;;;;;;20.39;60.67;99443.44;4973855;28;20194;-82
2022/06/15 05:31:22;;;;;;;10.57;4.77;;;;;;;21.20;61.18;99547.63;4975748;28;20345;-82
2022/06/15 05:33:55;;;;;;;6.43;4.23;;;;;;;20.31;58.72;99423.66;4976206;28;20187;-82
2022/06/15 05:36:30;;;;;;;5.27;4.47;;;;;;;20.44;60.76;99454.59;4981952;28;20191;-84
2022/06/15 05:38:56;;;;;;;7.87;4.37;;;;;;;20.79;59.91;99500.22;4977398;28;20191;-82
2022/06/15 05:41:21;;;;;;;6.17;4.40;;;;;;;21.18;59.86;99516.69;4981331;28;20199;-82
2022/06/15 05:43:48;;;;;;;7.63;4.30;;;;;;;21.50;57.75;99570.91;4979984;28;20211;-82
2022/06/15 05:46:26;;;;;;;7.13;3.97;;;;;;;21.57;57.67;99577.75;4980196;28;20283;-83
2022/06/15 05:48:52;;;;;;;6.60;4.23;;;;;;;21.84;58.61;99570.97;4980181;28;20188;-82
2022/06/15 05:51:17;;;;;;;13.70;3.77;;;;;;;21.83;57.82;99570.09;4984230;28;20227;-83
2022/06/15 05:53:43;;;;;;;8.47;4.20;;;;;;;21.69;57.42;99570.06;4987312;28;20199;-83
2022/06/15 05:56:08;;;;;;;5.20;4.10;;;;;;;21.77;58.52;99576.09;4965800;28;20215;-85
2022/06/15 05:58:33;;;;;;;5.60;4.10;;;;;;;21.71;57.79;99576.09;4942378;28;20243;-87
2022/06/15 06:01:11;;;;;;;5.27;4.40;;;;;;;20.37;56.69;99388.56;4950000;28;20239;-87
2022/06/15 06:03:37;;;;;;;6.40;4.27;;;;;;;21.50;57.95;99581.19;4985609;28;20220;-83
2022/06/15 06:06:03;;;;;;;5.37;4.27;;;;;;;21.56;58.51;99583.75;4976354;28;20188;-86
2022/06/15 06:08:28;;;;;;;7.53;4.70;;;;;;;21.20;58.09;99452.34;4966976;28;20242;-88
2022/06/15 06:10:54;;;;;;;6.43;4.20;;;;;;;21.55;57.69;99507.34;4987721;28;20236;-88
2022/06/15 06:13:19;;;;;;;8.37;4.37;;;;;;;21.51;57.46;99456.66;4983543;28;20184;-85
2022/06/15 06:15:44;;;;;;;6.57;4.70;;;;;;;22.36;58.29;99584.75;4975104;28;20193;-81
2022/06/15 06:18:10;;;;;;;5.93;4.30;;;;;;;22.78;56.48;99590.72;4972894;28;20712;-82
2022/06/15 06:20:35;;;;;;;7.17;4.40;;;;;;;22.51;56.22;99593.34;4969298;28;20184;-81
2022/06/15 06:23:01;;;;;;;6.57;3.67;;;;;;;22.35;55.50;99586.47;4978991;28;20187;-84
2022/06/15 06:25:26;;;;;;;8.33;3.70;;;;;;;22.35;57.11;99583.88;4962721;28;20235;-84
2022/06/15 06:27:52;;;;;;;6.03;4.10;;;;;;;22.43;56.91;99589.91;4974562;28;20187;-80
2022/06/15 06:30:21;;;;;;;6.30;4.17;;;;;;;21.83;55.13;99469.56;4994229;28;20933;-83
2022/06/15 06:32:46;;;;;;;7.73;4.20;;;;;;;22.65;55.15;99578.72;4981744;28;20203;-89
2022/06/15 06:35:12;;;;;;;6.43;4.07;;;;;;;22.54;55.48;99593.34;4977894;28;20646;-85
2022/06/15 06:37:38;;;;;;;10.60;4.10;;;;;;;21.96;55.34;99504.81;4976760;28;20284;-90
2022/06/15 06:40:04;;;;;;;9.17;3.77;;;;;;;22.52;54.54;99546.03;4981158;28;20237;-88
2022/06/15 06:42:29;;;;;;;7.17;3.70;;;;;;;22.63;55.87;99574.41;4977928;28;20229;-83
2022/06/15 06:44:55;;;;;;;7.30;3.77;;;;;;;22.33;54.56;99515.97;4975927;28;20657;-81
2022/06/15 06:47:20;;;;;;;6.50;3.70;;;;;;;23.19;54.14;99550.97;4974413;28;20184;-87
2022/06/15 06:49:46;;;;;;;5.37;3.60;;;;;;;22.99;53.65;99543.31;4973793;28;20191;-80
2022/06/15 06:52:11;;;;;;;5.33;3.53;;;;;;;22.89;53.65;99544.22;4957929;28;20239;-82
2022/06/15 06:54:37;;;;;;;5.20;3.57;;;;;;;22.89;54.50;99565.75;4973832;28;20779;-87
2022/06/15 06:57:02;;;;;;;7.77;3.73;;;;;;;23.12;53.95;99578.59;4970200;28;20196;-84
2022/06/15 06:59:28;;;;;;;7.63;3.23;;;;;;;22.55;53.29;99517.59;4974958;28;20191;-87
2022/06/15 07:01:53;;;;;;;4.77;3.30;;;;;;;23.35;52.79;99570.72;4977452;28;20258;-88
2022/06/15 07:04:19;;;;;;;5.63;3.60;;;;;;;23.04;53.33;99517.50;4995727;28;20255;-85
2022/06/15 07:06:46;;;;;;;4.43;3.27;;;;;;;23.72;51.87;99595.53;5000197;28;20175;-84
2022/06/15 07:09:12;;;;;;;4.50;3.83;;;;;;;23.76;52.47;99593.81;5007915;28;20648;-85
2022/06/15 07:11:39;;;;;;;4.73;3.53;;;;;;;22.48;50.72;99343.03;4986109;28;20208;-80
2022/06/15 07:14:05;;;;;;;4.10;3.40;;;;;;;23.16;52.24;99440.78;4977891;28;20203;-87
2022/06/15 07:16:31;;;;;;;4.57;3.47;;;;;;;22.74;50.70;99368.75;4979859;28;20183;-88
2022/06/15 07:18:56;;;;;;;4.20;3.70;;;;;;;23.63;51.39;99476.66;4994603;28;20242;-82
2022/06/15 07:21:24;;;;;;;5.60;4.30;;;;;;;23.99;50.49;99543.63;4992604;28;20215;-82
2022/06/15 07:23:52;;;;;;;8.03;4.30;;;;;;;23.56;51.46;99435.38;4991873;28;20190;-82
2022/06/15 07:26:24;;;;;;;5.83;3.93;;;;;;;23.70;50.89;99465.44;4985409;28;20696;-88
2022/06/15 07:28:50;;;;;;;7.70;4.83;;;;;;;24.31;51.70;99533.00;4999658;28;20573;-86
2022/06/15 07:31:24;;;;;;;9.10;5.27;;;;;;;24.96;51.61;99597.13;4994970;28;20210;-87
2022/06/15 07:33:50;;;;;;;8.73;4.40;;;;;;;24.03;49.97;99403.03;5000722;28;20201;-90
2022/06/15 07:36:16;;;;;;;7.03;4.43;;;;;;;24.33;51.57;99596.00;4982078;28;20191;-87
2022/06/15 07:38:41;;;;;;;11.40;4.23;;;;;;;23.99;50.63;99414.28;4997356;28;20619;-90
2022/06/15 07:41:07;;;;;;;8.17;4.00;;;;;;;24.74;50.22;99488.56;5001009;28;20191;-89
2022/06/15 07:43:32;;;;;;;6.70;3.93;;;;;;;24.83;50.51;99471.19;5008939;28;20179;-88
2022/06/15 07:45:58;;;;;;;8.93;4.20;;;;;;;25.21;48.72;99461.19;5001700;28;20230;-88
2022/06/15 07:51:07;;;;;;;7.27;3.50;;;;;;;25.33;48.79;99586.28;5005629;28;20294;-89
2022/06/15 07:53:33;;;;;;;6.03;4.60;;;;;;;24.01;50.09;99422.88;4993197;28;20203;-85
2022/06/15 07:55:58;;;;;;;6.90;4.70;;;;;;;25.18;49.57;99619.31;4988408;28;20896;-83
2022/06/15 07:58:24;;;;;;;6.87;3.87;;;;;;;24.78;49.30;99472.94;5009659;28;20179;-81
2022/06/15 08:00:50;;;;;;;6.07;3.63;;;;;;;25.69;50.16;99576.31;5010607;28;20197;-82
2022/06/15 08:03:17;;;;;;;7.57;4.67;;;;;;;25.81;50.96;99601.22;5014005;28;20234;-88
2022/06/15 08:05:46;;;;;;;8.23;4.50;;;;;;;25.17;50.11;99475.06;5019976;28;20249;-87
2022/06/15 08:08:16;;;;;;;4.38;3.90;;;;;;;25.80;48.70;99550.22;4997792;28;20255;-82
2022/06/15 08:10:41;;;;;;;7.88;4.55;;;;;;;25.05;48.88;99431.16;4994067;28;20671;-89
2022/06/15 08:13:07;;;;;;;6.50;4.13;;;;;;;26.69;49.23;99605.00;5011929;28;20212;-86
2022/06/15 08:15:34;;;;;;;4.35;3.92;;;;;;;26.23;48.27;99598.00;5011782;28;20253;-89
2022/06/15 08:18:03;;;;;;;6.80;4.43;;;;;;;25.63;49.58;99593.69;4998252;28;20192;-89
2022/06/15 08:20:36;;;;;;;7.53;4.70;;;;;;;25.04;50.48;99468.34;5012880;28;20245;-85
2022/06/15 08:23:09;;;;;;;7.90;4.75;;;;;;;26.33;50.06;99596.97;4977991;28;20283;-86
2022/06/15 08:25:39;;;;;;;5.55;4.20;;;;;;;25.73;50.77;99479.44;4959219;28;20229;-89
2022/06/15 08:28:07;;;;;;;6.07;4.30;;;;;;;26.45;50.99;99605.44;4994581;28;20897;-88
2022/06/15 08:30:34;;;;;;;7.22;5.82;;;;;;;26.61;49.25;99589.56;5009804;28;20624;-91
2022/06/15 08:33:00;;;;;;;6.95;5.05;;;;;;;26.58;52.55;99612.13;5003766;28;20267;-82
2022/06/15 08:35:25;;;;;;;7.05;4.28;;;;;;;25.82;49.91;99389.38;4988469;28;20194;-82
2022/06/15 08:37:51;;;;;;;6.82;4.50;;;;;;;27.04;49.62;99578.38;4989167;28;20193;-90
2022/06/15 08:40:17;;;;;;;6.13;4.50;;;;;;;25.88;50.56;99517.22;5015402;28;20197;-86
2022/06/15 08:42:55;;;;;;;5.55;4.63;;;;;;;26.04;51.09;99598.31;4996088;28;20201;-87
2022/06/15 08:45:39;;;;;;;4.68;4.22;;;;;;;24.92;52.05;99437.41;4990453;28;20203;-88
2022/06/15 08:48:12;;;;;;;5.00;4.38;;;;;;;26.26;50.94;99592.75;5007649;28;20185;-91
2022/06/15 08:50:48;;;;;;;4.93;4.40;;;;;;;25.60;52.48;99545.31;5005758;28;20195;-87
2022/06/15 08:53:19;;;;;;;8.00;4.68;;;;;;;26.55;50.88;99601.78;4973149;28;20252;-87
2022/06/15 08:55:53;;;;;;;6.18;4.32;;;;;;;26.19;48.94;99598.94;4972630;28;20657;-84
2022/06/15 08:58:41;;;;;;;4.65;4.13;;;;;;;26.73;50.04;99593.66;4990725;28;20189;-85
2022/06/15 09:01:14;;;;;;;5.05;4.50;;;;;;;26.73;49.48;99576.34;4992306;28;20243;-87
2022/06/15 09:03:49;;;;;;;5.78;4.47;;;;;;;27.13;49.28;99586.84;4986573;28;20589;-87
2022/06/15 09:06:28;;;;;;;5.75;4.32;;;;;;;25.68;51.80;99450.09;4990431;28;20654;-87
2022/06/15 09:09:03;;;;;;;6.60;5.60;;;;;;;26.43;52.36;99591.59;4991584;28;20186;-88
2022/06/15 09:11:30;;;;;;;7.07;4.78;;;;;;;26.94;51.51;99595.91;4991479;28;20329;-86
2022/06/15 09:14:34;;;;;;;8.18;4.72;;;;;;;27.50;50.97;99600.81;4991305;28;20197;-83
2022/06/15 09:17:16;;;;;;;6.53;4.63;;;;;;;27.31;51.33;99598.59;4991699;28;20611;-87
2022/06/15 09:19:58;;;;;;;5.45;4.50;;;;;;;26.43;50.99;99441.00;4992936;28;20649;-85
2022/06/15 09:22:31;;;;;;;8.90;4.95;;;;;;;27.09;50.02;99569.59;4993397;28;20674;-87
2022/06/15 09:25:02;;;;;;;7.57;4.97;;;;;;;25.66;51.66;99488.19;4981247;28;20235;-86
2022/06/15 09:28:04;;;;;;;7.10;5.30;;;;;;;26.79;50.91;99599.63;4995036;28;20186;-86
2022/06/15 09:30:37;;;;;;;5.38;4.30;;;;;;;27.55;46.52;99605.09;4917179;29;20200;-86
2022/06/15 09:33:22;;;;;;;6.88;3.90;;;;;;;27.05;46.95;99604.34;4919091;29;20310;-87
2022/06/15 09:35:53;;;;;;;5.28;4.30;;;;;;;27.43;47.58;99604.47;4918112;29;20223;-83
2022/06/15 09:38:20;;;;;;;4.78;4.15;;;;;;;27.90;46.35;99597.34;4916845;29;20264;-86
2022/06/15 09:40:54;;;;;;;5.70;4.20;;;;;;;28.12;45.87;99603.78;4916622;29;20744;-88
2022/06/15 09:43:29;;;;;;;6.20;4.50;;;;;;;28.04;46.41;99512.00;4916361;29;20197;-88
2022/06/15 09:46:10;;;;;;;5.88;4.10;;;;;;;28.04;44.92;99605.72;4917121;29;20206;-88
2022/06/15 09:48:52;;;;;;;4.85;3.80;;;;;;;28.04;44.80;99603.13;4917061;29;20267;-88
2022/06/15 09:51:29;;;;;;;6.47;4.00;;;;;;;26.98;45.51;99485.78;4917108;29;20241;-87
2022/06/15 09:54:14;;;;;;;7.35;4.60;;;;;;;28.08;47.82;99596.94;4916567;29;20200;-88
2022/06/15 09:56:40;;;;;;;6.50;4.50;;;;;;;28.13;48.01;99527.38;4865110;29;20213;-85
2022/06/15 09:59:12;;;;;;;7.35;4.70;;;;;;;27.75;47.69;99498.78;4879934;29;20280;-88
2022/06/15 10:01:41;;;;;;;8.10;4.82;;;;;;;27.00;46.93;99353.22;4876172;29;20246;-89
2022/06/15 10:04:16;;;;;;;5.75;4.60;;;;;;;27.69;44.44;99509.38;4861061;29;20294;-88
2022/06/15 10:06:47;;;;;;;5.25;4.05;;;;;;;27.14;46.76;99598.94;4914325;29;20229;-85
2022/06/15 10:09:16;;;;;;;5.93;4.18;;;;;;;27.98;44.60;99595.41;4917117;29;20813;-87
2022/06/15 10:15:13;;;;;;;6.43;4.18;;;;;;;27.85;45.20;99602.66;4867328;29;20212;-87
2022/06/15 10:17:44;;;;;;;5.88;4.30;;;;;;;28.07;45.68;99603.88;4871066;29;20941;-85
2022/06/15 10:20:36;;;;;;;5.95;3.85;;;;;;;28.29;41.58;99599.03;4858184;29;20204;-86
2022/06/15 10:23:05;;;;;;;4.10;3.70;;;;;;;28.37;42.54;99599.69;4855014;29;20215;-84
2022/06/15 10:25:36;;;;;;;6.45;4.35;;;;;;;28.43;44.27;99598.69;4843014;29;20239;-85
2022/06/15 10:28:16;;;;;;;4.72;3.75;;;;;;;27.38;42.99;99398.22;4854701;29;20271;-85
2022/06/15 10:30:57;;;;;;;4.60;4.05;;;;;;;27.66;43.68;99457.41;4859494;29;20187;-87
2022/06/15 10:33:24;;;;;;;4.50;4.10;;;;;;;27.40;43.30;99466.69;4863794;29;20206;-86
2022/06/15 10:35:58;;;;;;;5.28;4.57;;;;;;;28.48;43.04;99589.84;4877434;29;20590;-86
2022/06/15 10:38:26;;;;;;;4.35;3.88;;;;;;;27.98;43.68;99527.72;4877990;29;20202;-85
2022/06/15 10:41:45;;;;;;;6.88;3.80;;;;;;;28.51;42.42;99581.09;4891080;29;20655;-84
2022/06/15 10:43:46;;;;;;;5.45;3.28;;;;;;;28.38;41.09;99582.28;4900136;29;20254;-85
2022/06/15 10:46:12;;;;;;;6.22;3.47;;;;;;;28.21;41.07;99577.50;4902510;29;20660;-85
2022/06/15 10:48:47;;;;;;;6.35;3.88;;;;;;;28.39;41.45;99586.63;4898590;29;20249;-84
2022/06/15 10:51:15;;;;;;;6.82;3.70;;;;;;;28.28;41.61;99583.41;4925688;29;20212;-85
2022/06/15 10:53:42;;;;;;;4.68;3.88;;;;;;;28.09;42.96;99572.63;4964101;29;20184;-87
2022/06/15 11:02:20;;;;;;;6.85;3.95;;;;;;;28.54;42.44;99581.03;4958345;28;20308;-88
2022/06/15 11:04:46;;;;;;;5.93;4.35;;;;;;;28.58;43.27;99575.69;4958781;29;20202;-87
2022/06/15 11:07:39;;;;;;;5.45;4.30;;;;;;;27.55;42.70;99425.59;4963583;28;20664;-88
2022/06/15 11:10:09;;;;;;;4.40;4.00;;;;;;;28.38;42.78;99570.13;4977687;28;20200;-88
2022/06/15 11:12:46;;;;;;;4.70;4.20;;;;;;;27.36;42.37;99409.56;4977581;28;20230;-89
2022/06/15 11:15:20;;;;;;;4.57;3.72;;;;;;;28.53;41.44;99568.88;4961128;28;20257;-87
2022/06/15 11:18:03;;;;;;;5.82;3.60;;;;;;;27.82;40.94;99458.72;4978298;28;20181;-88
2022/06/15 11:20:45;;;;;;;6.50;3.90;;;;;;;27.57;41.80;99418.59;4975419;28;20187;-88
2022/06/15 11:23:19;;;;;;;5.13;3.65;;;;;;;27.07;42.13;99388.56;4977212;28;20187;-88
2022/06/15 11:25:56;;;;;;;4.45;3.88;;;;;;;27.61;41.69;99379.44;4965616;28;20261;-88
2022/06/15 11:28:37;;;;;;;5.97;4.30;;;;;;;27.62;42.14;99393.31;4980661;28;20189;-87
2022/06/15 11:31:14;;;;;;;5.53;4.40;;;;;;;28.90;42.31;99516.66;4977963;28;20194;-89
2022/06/15 11:34:06;;;;;;;8.80;4.70;;;;;;;28.74;43.73;99526.63;4978037;28;20215;-85
2022/06/15 11:36:51;;;;;;;6.20;4.28;;;;;;;28.70;43.75;99506.78;4896341;29;20210;-87
2022/06/15 11:39:35;;;;;;;5.88;4.20;;;;;;;30.15;41.13;99525.78;4896060;29;20202;-85
2022/06/15 11:42:01;;;;;;;5.80;4.72;;;;;;;31.14;40.48;99503.97;4875763;29;20213;-85
2022/06/15 11:44:34;;;;;;;9.10;4.43;;;;;;;32.29;38.34;99567.44;4891664;29;20191;-85
2022/06/15 11:47:42;;;;;;;7.25;4.13;;;;;;;32.66;35.99;99568.47;4894566;29;20202;-87
2022/06/15 11:50:25;;;;;;;12.05;4.22;;;;;;;32.77;36.29;99564.53;4844265;29;20197;-85
2022/06/15 11:53:03;;;;;;;5.25;3.83;;;;;;;33.60;34.38;99579.09;4822777;29;20205;-85
2022/06/15 11:55:40;;;;;;;4.53;4.10;;;;;;;33.55;33.56;99565.31;4822910;29;20193;-87
2022/06/15 11:58:23;;;;;;;7.25;3.83;;;;;;;34.03;33.42;99572.66;4822860;29;20169;-87
2022/06/15 12:01:07;;;;;;;5.40;3.90;;;;;;;34.90;32.20;99564.69;4822818;29;20204;-86
2022/06/15 12:04:01;;;;;;;6.55;4.15;;;;;;;32.68;33.04;99487.13;4858735;29;20227;-85
2022/06/15 12:06:56;;;;;;;4.72;3.67;;;;;;;34.22;32.82;99558.56;4858536;29;20215;-85
2022/06/15 12:09:40;;;;;;;6.20;4.00;;;;;;;34.55;31.55;99555.13;4859157;29;20554;-86